sensor_id;sensor_type;location;lat;lon;timestamp;temperature;humidity
4856;DHT22;2442;48.676;7.986;2022-11-20T00:01:10;6.50;99.90
4856;DHT22;2442;48.676;7.986;2022-11-20T00:03:37;6.70;99.90
4856;DHT22;2442;48.676;7.986;2022-11-20T00:06:05;6.50;99.90
4856;DHT22;2442;48.676;7.986;2022-11-20T00:08:33;6.60;99.90
4856;DHT22;2442;48.676;7.986;2022-11-20T00:11:04;6.60;99.90
4856;DHT22;2442;48.676;7.986;2022-11-20T00:13:31;6.70;99.90
4856;DHT22;2442;48.676;7.986;2022-11-20T00:15:58;6.70;99.90
4856;DHT22;2442;48.676;7.986;2022-11-20T00:18:25;6.70;99.90
4856;DHT22;2442;48.676;7.986;2022-11-20T00:20:51;6.70;99.90
4856;DHT22;2442;48.676;7.986;2022-11-20T00:23:18;6.80;99.90
4856;DHT22;2442;48.676;7.986;2022-11-20T00:25:45;6.80;99.90
4856;DHT22;2442;48.676;7.986;2022-11-20T00:28:14;6.80;99.90
4856;DHT22;2442;48.676;7.986;2022-11-20T00:30:40;6.80;99.90
4856;DHT22;2442;48.676;7.986;2022-11-20T00:33:07;7.00;99.90
4856;DHT22;2442;48.676;7.986;2022-11-20T00:35:34;6.80;99.90
4856;DHT22;2442;48.676;7.986;2022-11-20T00:38:01;6.80;99.90
4856;DHT22;2442;48.676;7.986;2022-11-20T00:40:28;6.80;99.90
4856;DHT22;2442;48.676;7.986;2022-11-20T00:42:55;6.80;99.90
4856;DHT22;2442;48.676;7.986;2022-11-20T00:45:24;6.80;99.90
4856;DHT22;2442;48.676;7.986;2022-11-20T00:47:51;6.80;99.90
4856;DHT22;2442;48.676;7.986;2022-11-20T00:50:17;7.00;99.90
4856;DHT22;2442;48.676;7.986;2022-11-20T00:52:44;6.80;99.90
4856;DHT22;2442;48.676;7.986;2022-11-20T00:55:11;6.80;99.90
4856;DHT22;2442;48.676;7.986;2022-11-20T00:57:39;6.80;99.90
4856;DHT22;2442;48.676;7.986;2022-11-20T01:00:07;6.80;99.90
4856;DHT22;2442;48.676;7.986;2022-11-20T01:02:35;6.80;99.90
4856;DHT22;2442;48.676;7.986;2022-11-20T01:05:02;6.80;99.90
4856;DHT22;2442;48.676;7.986;2022-11-20T01:07:29;6.80;99.90
4856;DHT22;2442;48.676;7.986;2022-11-20T01:09:56;6.80;99.90
4856;DHT22;2442;48.676;7.986;2022-11-20T01:12:23;6.80;99.90
4856;DHT22;2442;48.676;7.986;2022-11-20T01:14:50;6.80;99.90
4856;DHT22;2442;48.676;7.986;2022-11-20T01:17:17;6.80;99.90
4856;DHT22;2442;48.676;7.986;2022-11-20T01:19:48;6.80;99.90
4856;DHT22;2442;48.676;7.986;2022-11-20T01:22:15;7.00;99.90
4856;DHT22;2442;48.676;7.986;2022-11-20T01:24:42;6.90;99.90
4856;DHT22;2442;48.676;7.986;2022-11-20T01:29:47;6.80;99.90
4856;DHT22;2442;48.676;7.986;2022-11-20T01:32:14;6.70;99.90
4856;DHT22;2442;48.676;7.986;2022-11-20T01:34:41;6.70;99.90
4856;DHT22;2442;48.676;7.986;2022-11-20T01:37:09;6.60;99.90
4856;DHT22;2442;48.676;7.986;2022-11-20T01:39:36;6.60;99.90
4856;DHT22;2442;48.676;7.986;2022-11-20T01:42:03;6.60;99.90
4856;DHT22;2442;48.676;7.986;2022-11-20T01:44:50;6.60;99.90
4856;DHT22;2442;48.676;7.986;2022-11-20T01:47:21;6.60;99.90
4856;DHT22;2442;48.676;7.986;2022-11-20T01:49:52;6.70;99.90
4856;DHT22;2442;48.676;7.986;2022-11-20T01:52:25;6.70;99.90
4856;DHT22;2442;48.676;7.986;2022-11-20T01:54:57;6.70;99.90
4856;DHT22;2442;48.676;7.986;2022-11-20T01:57:27;6.70;99.90
4856;DHT22;2442;48.676;7.986;2022-11-20T02:00:00;6.70;99.90
4856;DHT22;2442;48.676;7.986;2022-11-20T02:02:28;6.70;99.90
4856;DHT22;2442;48.676;7.986;2022-11-20T02:04:57;6.70;99.90
4856;DHT22;2442;48.676;7.986;2022-11-20T02:07:28;6.70;99.90
4856;DHT22;2442;48.676;7.986;2022-11-20T02:09:56;6.70;99.90
4856;DHT22;2442;48.676;7.986;2022-11-20T02:12:23;6.70;99.90
4856;DHT22;2442;48.676;7.986;2022-11-20T02:15:07;6.60;99.90
4856;DHT22;2442;48.676;7.986;2022-11-20T02:17:34;6.60;99.90
4856;DHT22;2442;48.676;7.986;2022-11-20T02:20:02;6.60;99.90
4856;DHT22;2442;48.676;7.986;2022-11-20T02:22:35;6.60;99.90
4856;DHT22;2442;48.676;7.986;2022-11-20T02:25:07;6.60;99.90
4856;DHT22;2442;48.676;7.986;2022-11-20T02:27:34;6.60;99.90
4856;DHT22;2442;48.676;7.986;2022-11-20T02:30:03;6.70;99.90
4856;DHT22;2442;48.676;7.986;2022-11-20T02:32:32;6.70;99.90
4856;DHT22;2442;48.676;7.986;2022-11-20T02:35:06;6.70;99.90
4856;DHT22;2442;48.676;7.986;2022-11-20T02:37:36;6.60;99.90
4856;DHT22;2442;48.676;7.986;2022-11-20T02:40:06;6.60;99.90
4856;DHT22;2442;48.676;7.986;2022-11-20T02:42:33;6.60;99.90
4856;DHT22;2442;48.676;7.986;2022-11-20T02:45:00;6.60;99.90
4856;DHT22;2442;48.676;7.986;2022-11-20T02:47:27;6.60;99.90
4856;DHT22;2442;48.676;7.986;2022-11-20T02:49:54;6.60;99.90
4856;DHT22;2442;48.676;7.986;2022-11-20T02:52:20;6.60;99.90
4856;DHT22;2442;48.676;7.986;2022-11-20T02:54:47;6.60;99.90
4856;DHT22;2442;48.676;7.986;2022-11-20T02:57:16;6.60;99.90
4856;DHT22;2442;48.676;7.986;2022-11-20T02:59:42;6.50;99.90
4856;DHT22;2442;48.676;7.986;2022-11-20T03:02:09;6.60;99.90
4856;DHT22;2442;48.676;7.986;2022-11-20T03:04:36;6.60;99.90
4856;DHT22;2442;48.676;7.986;2022-11-20T03:07:04;6.60;99.90
4856;DHT22;2442;48.676;7.986;2022-11-20T03:09:30;6.60;99.90
4856;DHT22;2442;48.676;7.986;2022-11-20T03:11:57;6.60;99.90
4856;DHT22;2442;48.676;7.986;2022-11-20T03:14:25;6.70;99.90
4856;DHT22;2442;48.676;7.986;2022-11-20T03:16:52;6.60;99.90
4856;DHT22;2442;48.676;7.986;2022-11-20T03:19:19;6.70;99.90
4856;DHT22;2442;48.676;7.986;2022-11-20T03:21:46;6.70;99.90
4856;DHT22;2442;48.676;7.986;2022-11-20T03:24:13;6.70;99.90
4856;DHT22;2442;48.676;7.986;2022-11-20T03:26:40;6.70;99.90
4856;DHT22;2442;48.676;7.986;2022-11-20T03:29:07;6.80;99.90
4856;DHT22;2442;48.676;7.986;2022-11-20T03:31:36;6.70;99.90
4856;DHT22;2442;48.676;7.986;2022-11-20T03:34:06;6.70;99.90
4856;DHT22;2442;48.676;7.986;2022-11-20T03:36:33;6.80;99.90
4856;DHT22;2442;48.676;7.986;2022-11-20T03:39:00;6.80;99.90
4856;DHT22;2442;48.676;7.986;2022-11-20T03:41:28;6.80;99.90
4856;DHT22;2442;48.676;7.986;2022-11-20T03:43:57;6.80;99.90
4856;DHT22;2442;48.676;7.986;2022-11-20T03:46:25;6.80;99.90
4856;DHT22;2442;48.676;7.986;2022-11-20T03:48:53;6.80;99.90
4856;DHT22;2442;48.676;7.986;2022-11-20T03:51:22;6.80;99.90
4856;DHT22;2442;48.676;7.986;2022-11-20T03:53:51;6.80;99.90
4856;DHT22;2442;48.676;7.986;2022-11-20T03:56:24;6.80;99.90
4856;DHT22;2442;48.676;7.986;2022-11-20T03:58:51;6.80;99.90
4856;DHT22;2442;48.676;7.986;2022-11-20T04:01:19;6.70;99.90
4856;DHT22;2442;48.676;7.986;2022-11-20T04:03:47;6.70;99.90
4856;DHT22;2442;48.676;7.986;2022-11-20T04:06:17;6.70;99.90
4856;DHT22;2442;48.676;7.986;2022-11-20T04:08:44;6.70;99.90
4856;DHT22;2442;48.676;7.986;2022-11-20T04:11:12;6.70;99.90
4856;DHT22;2442;48.676;7.986;2022-11-20T04:13:39;6.70;99.90
4856;DHT22;2442;48.676;7.986;2022-11-20T04:16:07;6.70;99.90
4856;DHT22;2442;48.676;7.986;2022-11-20T04:18:35;6.70;99.90
4856;DHT22;2442;48.676;7.986;2022-11-20T04:21:03;6.70;99.90
4856;DHT22;2442;48.676;7.986;2022-11-20T04:23:31;6.70;99.90
4856;DHT22;2442;48.676;7.986;2022-11-20T04:26:01;6.70;99.90
4856;DHT22;2442;48.676;7.986;2022-11-20T04:28:28;6.70;99.90
4856;DHT22;2442;48.676;7.986;2022-11-20T04:31:01;6.70;99.90
4856;DHT22;2442;48.676;7.986;2022-11-20T04:33:29;6.70;99.90
4856;DHT22;2442;48.676;7.986;2022-11-20T04:36:00;6.70;99.90
4856;DHT22;2442;48.676;7.986;2022-11-20T04:38:27;6.80;99.90
4856;DHT22;2442;48.676;7.986;2022-11-20T04:40:57;6.70;99.90
4856;DHT22;2442;48.676;7.986;2022-11-20T04:43:24;6.70;99.90
4856;DHT22;2442;48.676;7.986;2022-11-20T04:45:51;6.70;99.90
4856;DHT22;2442;48.676;7.986;2022-11-20T04:48:18;6.70;99.90
4856;DHT22;2442;48.676;7.986;2022-11-20T04:50:45;6.70;99.90
4856;DHT22;2442;48.676;7.986;2022-11-20T04:53:12;6.70;99.90
4856;DHT22;2442;48.676;7.986;2022-11-20T04:55:39;6.70;99.90
4856;DHT22;2442;48.676;7.986;2022-11-20T04:58:08;6.70;99.90
4856;DHT22;2442;48.676;7.986;2022-11-20T05:00:35;6.70;99.90
4856;DHT22;2442;48.676;7.986;2022-11-20T05:03:02;6.70;99.90
4856;DHT22;2442;48.676;7.986;2022-11-20T05:05:29;6.60;99.90
4856;DHT22;2442;48.676;7.986;2022-11-20T05:07:56;6.60;99.90
4856;DHT22;2442;48.676;7.986;2022-11-20T05:10:23;6.70;99.90
4856;DHT22;2442;48.676;7.986;2022-11-20T05:12:50;6.70;99.90
4856;DHT22;2442;48.676;7.986;2022-11-20T05:15:18;6.70;99.90
4856;DHT22;2442;48.676;7.986;2022-11-20T05:17:47;6.70;99.90
4856;DHT22;2442;48.676;7.986;2022-11-20T05:20:14;6.60;99.90
4856;DHT22;2442;48.676;7.986;2022-11-20T05:22:41;6.60;99.90
4856;DHT22;2442;48.676;7.986;2022-11-20T05:25:09;6.70;99.90
4856;DHT22;2442;48.676;7.986;2022-11-20T05:27:36;6.70;99.90
4856;DHT22;2442;48.676;7.986;2022-11-20T05:30:04;6.70;99.90
4856;DHT22;2442;48.676;7.986;2022-11-20T05:32:32;6.70;99.90
4856;DHT22;2442;48.676;7.986;2022-11-20T05:34:59;6.60;99.90
4856;DHT22;2442;48.676;7.986;2022-11-20T05:37:26;6.70;99.90
4856;DHT22;2442;48.676;7.986;2022-11-20T05:39:53;6.70;99.90
4856;DHT22;2442;48.676;7.986;2022-11-20T05:42:19;6.70;99.90
4856;DHT22;2442;48.676;7.986;2022-11-20T05:45:01;6.70;99.90
4856;DHT22;2442;48.676;7.986;2022-11-20T05:47:31;6.70;99.90
4856;DHT22;2442;48.676;7.986;2022-11-20T05:49:59;6.70;99.90
4856;DHT22;2442;48.676;7.986;2022-11-20T05:52:28;6.70;99.90
4856;DHT22;2442;48.676;7.986;2022-11-20T05:54:55;6.70;99.90
4856;DHT22;2442;48.676;7.986;2022-11-20T05:57:22;6.70;99.90
4856;DHT22;2442;48.676;7.986;2022-11-20T05:59:49;6.70;99.90
4856;DHT22;2442;48.676;7.986;2022-11-20T06:02:15;6.70;99.90
4856;DHT22;2442;48.676;7.986;2022-11-20T06:04:42;6.70;99.90
4856;DHT22;2442;48.676;7.986;2022-11-20T06:07:11;6.70;99.90
4856;DHT22;2442;48.676;7.986;2022-11-20T06:09:38;6.70;99.90
4856;DHT22;2442;48.676;7.986;2022-11-20T06:12:05;6.70;99.90
4856;DHT22;2442;48.676;7.986;2022-11-20T06:14:32;6.70;99.90
4856;DHT22;2442;48.676;7.986;2022-11-20T06:16:59;6.70;99.90
4856;DHT22;2442;48.676;7.986;2022-11-20T06:19:26;6.70;99.90
4856;DHT22;2442;48.676;7.986;2022-11-20T06:21:53;6.70;99.90
4856;DHT22;2442;48.676;7.986;2022-11-20T06:24:21;6.70;99.90
4856;DHT22;2442;48.676;7.986;2022-11-20T06:26:48;6.70;99.90
4856;DHT22;2442;48.676;7.986;2022-11-20T06:29:15;6.70;99.90
4856;DHT22;2442;48.676;7.986;2022-11-20T06:31:42;6.70;99.90
4856;DHT22;2442;48.676;7.986;2022-11-20T06:34:09;6.70;99.90
4856;DHT22;2442;48.676;7.986;2022-11-20T06:36:36;6.70;99.90
4856;DHT22;2442;48.676;7.986;2022-11-20T06:39:03;6.70;99.90
4856;DHT22;2442;48.676;7.986;2022-11-20T06:41:31;6.60;99.90
4856;DHT22;2442;48.676;7.986;2022-11-20T06:43:58;6.70;99.90
4856;DHT22;2442;48.676;7.986;2022-11-20T06:46:25;6.70;99.90
4856;DHT22;2442;48.676;7.986;2022-11-20T06:48:52;6.60;99.90
4856;DHT22;2442;48.676;7.986;2022-11-20T06:51:20;6.60;99.90
4856;DHT22;2442;48.676;7.986;2022-11-20T06:53:47;6.70;99.90
4856;DHT22;2442;48.676;7.986;2022-11-20T06:56:14;6.70;99.90
4856;DHT22;2442;48.676;7.986;2022-11-20T06:58:42;6.70;99.90
4856;DHT22;2442;48.676;7.986;2022-11-20T07:01:11;6.70;99.90
4856;DHT22;2442;48.676;7.986;2022-11-20T07:03:38;6.70;99.90
4856;DHT22;2442;48.676;7.986;2022-11-20T07:06:06;6.70;99.90
4856;DHT22;2442;48.676;7.986;2022-11-20T07:08:33;6.70;99.90
4856;DHT22;2442;48.676;7.986;2022-11-20T07:11:02;6.60;99.90
4856;DHT22;2442;48.676;7.986;2022-11-20T07:13:30;6.70;99.90
4856;DHT22;2442;48.676;7.986;2022-11-20T07:16:01;6.70;99.90
4856;DHT22;2442;48.676;7.986;2022-11-20T07:18:28;6.70;99.90
4856;DHT22;2442;48.676;7.986;2022-11-20T07:20:55;6.60;99.90
4856;DHT22;2442;48.676;7.986;2022-11-20T07:23:22;6.60;99.90
4856;DHT22;2442;48.676;7.986;2022-11-20T07:25:48;6.60;99.90
4856;DHT22;2442;48.676;7.986;2022-11-20T07:28:15;6.60;99.90
4856;DHT22;2442;48.676;7.986;2022-11-20T07:30:42;6.60;99.90
4856;DHT22;2442;48.676;7.986;2022-11-20T07:33:10;6.60;99.90
4856;DHT22;2442;48.676;7.986;2022-11-20T07:35:37;6.60;99.90
4856;DHT22;2442;48.676;7.986;2022-11-20T07:38:04;6.60;99.90
4856;DHT22;2442;48.676;7.986;2022-11-20T07:40:31;6.60;99.90
4856;DHT22;2442;48.676;7.986;2022-11-20T07:42:58;6.60;99.90
4856;DHT22;2442;48.676;7.986;2022-11-20T07:45:24;6.50;99.90
4856;DHT22;2442;48.676;7.986;2022-11-20T07:47:51;6.60;99.90
4856;DHT22;2442;48.676;7.986;2022-11-20T07:50:20;6.60;99.90
4856;DHT22;2442;48.676;7.986;2022-11-20T07:52:47;6.60;99.90
4856;DHT22;2442;48.676;7.986;2022-11-20T07:55:14;6.60;99.90
4856;DHT22;2442;48.676;7.986;2022-11-20T07:57:41;6.60;99.90
4856;DHT22;2442;48.676;7.986;2022-11-20T08:00:10;6.50;99.90
4856;DHT22;2442;48.676;7.986;2022-11-20T08:02:37;6.50;99.90
4856;DHT22;2442;48.676;7.986;2022-11-20T08:05:05;6.60;99.90
4856;DHT22;2442;48.676;7.986;2022-11-20T08:07:37;6.60;99.90
4856;DHT22;2442;48.676;7.986;2022-11-20T08:10:05;6.60;99.90
4856;DHT22;2442;48.676;7.986;2022-11-20T08:12:32;6.60;99.90
4856;DHT22;2442;48.676;7.986;2022-11-20T08:15:13;6.60;99.90
4856;DHT22;2442;48.676;7.986;2022-11-20T08:17:39;6.60;99.90
4856;DHT22;2442;48.676;7.986;2022-11-20T08:20:07;6.60;99.90
4856;DHT22;2442;48.676;7.986;2022-11-20T08:22:35;6.70;99.90
4856;DHT22;2442;48.676;7.986;2022-11-20T08:27:39;6.70;99.90
4856;DHT22;2442;48.676;7.986;2022-11-20T08:30:07;6.70;99.90
4856;DHT22;2442;48.676;7.986;2022-11-20T08:32:34;6.70;99.90
4856;DHT22;2442;48.676;7.986;2022-11-20T08:35:03;6.70;99.90
4856;DHT22;2442;48.676;7.986;2022-11-20T08:37:30;6.70;99.90
4856;DHT22;2442;48.676;7.986;2022-11-20T08:39:58;6.80;99.90
4856;DHT22;2442;48.676;7.986;2022-11-20T08:42:25;6.80;99.90
4856;DHT22;2442;48.676;7.986;2022-11-20T08:44:52;6.80;99.90
4856;DHT22;2442;48.676;7.986;2022-11-20T08:47:19;6.80;99.90
4856;DHT22;2442;48.676;7.986;2022-11-20T08:49:46;6.80;99.90
4856;DHT22;2442;48.676;7.986;2022-11-20T08:52:12;6.80;99.90
4856;DHT22;2442;48.676;7.986;2022-11-20T08:54:39;6.80;99.90
4856;DHT22;2442;48.676;7.986;2022-11-20T08:57:07;6.90;99.90
4856;DHT22;2442;48.676;7.986;2022-11-20T08:59:34;6.90;99.90
4856;DHT22;2442;48.676;7.986;2022-11-20T09:02:01;6.90;99.90
4856;DHT22;2442;48.676;7.986;2022-11-20T09:04:28;7.00;99.90
4856;DHT22;2442;48.676;7.986;2022-11-20T09:06:55;7.10;99.90
4856;DHT22;2442;48.676;7.986;2022-11-20T09:09:22;7.10;99.90
4856;DHT22;2442;48.676;7.986;2022-11-20T09:11:49;7.20;99.90
4856;DHT22;2442;48.676;7.986;2022-11-20T09:14:17;7.20;99.90
4856;DHT22;2442;48.676;7.986;2022-11-20T09:16:44;7.30;99.90
4856;DHT22;2442;48.676;7.986;2022-11-20T09:19:11;7.30;99.90
4856;DHT22;2442;48.676;7.986;2022-11-20T09:21:38;7.40;99.90
4856;DHT22;2442;48.676;7.986;2022-11-20T09:24:06;7.40;99.90
4856;DHT22;2442;48.676;7.986;2022-11-20T09:26:32;7.40;99.90
4856;DHT22;2442;48.676;7.986;2022-11-20T09:28:59;7.50;99.90
4856;DHT22;2442;48.676;7.986;2022-11-20T09:31:27;7.50;99.90
4856;DHT22;2442;48.676;7.986;2022-11-20T09:33:54;7.50;99.90
4856;DHT22;2442;48.676;7.986;2022-11-20T09:36:21;7.60;99.90
4856;DHT22;2442;48.676;7.986;2022-11-20T09:38:48;7.60;99.90
4856;DHT22;2442;48.676;7.986;2022-11-20T09:41:46;7.60;99.90
4856;DHT22;2442;48.676;7.986;2022-11-20T09:44:27;7.70;99.90
4856;DHT22;2442;48.676;7.986;2022-11-20T09:47:02;7.70;99.90
4856;DHT22;2442;48.676;7.986;2022-11-20T09:49:38;7.80;99.90
4856;DHT22;2442;48.676;7.986;2022-11-20T09:52:17;7.90;99.90
4856;DHT22;2442;48.676;7.986;2022-11-20T09:54:47;8.00;99.90
4856;DHT22;2442;48.676;7.986;2022-11-20T09:57:18;8.10;99.90
4856;DHT22;2442;48.676;7.986;2022-11-20T09:59:48;8.20;99.90
4856;DHT22;2442;48.676;7.986;2022-11-20T10:02:26;8.20;99.90
4856;DHT22;2442;48.676;7.986;2022-11-20T10:04:59;8.10;99.90
4856;DHT22;2442;48.676;7.986;2022-11-20T10:07:32;8.20;99.90
4856;DHT22;2442;48.676;7.986;2022-11-20T10:10:03;8.40;99.90
4856;DHT22;2442;48.676;7.986;2022-11-20T10:12:37;8.30;99.90
4856;DHT22;2442;48.676;7.986;2022-11-20T10:15:16;8.40;99.90
4856;DHT22;2442;48.676;7.986;2022-11-20T10:18:01;8.30;99.90
4856;DHT22;2442;48.676;7.986;2022-11-20T10:20:40;8.40;99.90
4856;DHT22;2442;48.676;7.986;2022-11-20T10:23:28;8.50;99.90
4856;DHT22;2442;48.676;7.986;2022-11-20T10:26:01;8.80;99.90
4856;DHT22;2442;48.676;7.986;2022-11-20T10:28:43;9.00;99.90
4856;DHT22;2442;48.676;7.986;2022-11-20T10:31:31;9.20;99.90
4856;DHT22;2442;48.676;7.986;2022-11-20T10:34:03;9.20;99.90
4856;DHT22;2442;48.676;7.986;2022-11-20T10:36:36;9.30;99.90
4856;DHT22;2442;48.676;7.986;2022-11-20T10:39:06;9.40;99.90
4856;DHT22;2442;48.676;7.986;2022-11-20T10:41:40;9.40;99.90
4856;DHT22;2442;48.676;7.986;2022-11-20T10:44:12;9.50;99.90
4856;DHT22;2442;48.676;7.986;2022-11-20T10:46:43;9.50;99.90
4856;DHT22;2442;48.676;7.986;2022-11-20T10:49:14;9.50;99.90
4856;DHT22;2442;48.676;7.986;2022-11-20T10:51:55;9.40;99.90
4856;DHT22;2442;48.676;7.986;2022-11-20T10:54:31;9.30;99.90
4856;DHT22;2442;48.676;7.986;2022-11-20T10:57:07;9.20;99.90
4856;DHT22;2442;48.676;7.986;2022-11-20T10:59:55;9.10;99.90
4856;DHT22;2442;48.676;7.986;2022-11-20T11:02:32;9.30;99.90
4856;DHT22;2442;48.676;7.986;2022-11-20T11:05:18;9.20;99.90
4856;DHT22;2442;48.676;7.986;2022-11-20T11:07:50;9.10;99.90
4856;DHT22;2442;48.676;7.986;2022-11-20T11:10:21;9.10;99.90
4856;DHT22;2442;48.676;7.986;2022-11-20T11:12:49;9.30;99.90
4856;DHT22;2442;48.676;7.986;2022-11-20T11:15:26;9.40;99.90
4856;DHT22;2442;48.676;7.986;2022-11-20T11:17:54;9.50;99.90
4856;DHT22;2442;48.676;7.986;2022-11-20T11:20:23;9.70;99.90
4856;DHT22;2442;48.676;7.986;2022-11-20T11:22:52;9.70;99.90
4856;DHT22;2442;48.676;7.986;2022-11-20T11:25:29;9.70;99.90
4856;DHT22;2442;48.676;7.986;2022-11-20T11:27:59;9.70;99.90
4856;DHT22;2442;48.676;7.986;2022-11-20T11:30:27;9.70;99.90
4856;DHT22;2442;48.676;7.986;2022-11-20T11:33:06;9.80;99.90
4856;DHT22;2442;48.676;7.986;2022-11-20T11:35:44;9.80;99.90
4856;DHT22;2442;48.676;7.986;2022-11-20T11:38:14;9.70;99.90
4856;DHT22;2442;48.676;7.986;2022-11-20T11:40:42;9.80;99.90
4856;DHT22;2442;48.676;7.986;2022-11-20T11:43:18;9.90;99.90
4856;DHT22;2442;48.676;7.986;2022-11-20T11:46:00;10.00;99.90
4856;DHT22;2442;48.676;7.986;2022-11-20T11:48:27;9.90;99.90
4856;DHT22;2442;48.676;7.986;2022-11-20T11:50:55;9.70;99.90
4856;DHT22;2442;48.676;7.986;2022-11-20T11:53:23;9.60;99.90
4856;DHT22;2442;48.676;7.986;2022-11-20T11:55:58;9.50;99.90
4856;DHT22;2442;48.676;7.986;2022-11-20T11:58:42;9.30;99.90
4856;DHT22;2442;48.676;7.986;2022-11-20T12:01:20;9.30;99.90
4856;DHT22;2442;48.676;7.986;2022-11-20T12:03:58;9.20;99.90
4856;DHT22;2442;48.676;7.986;2022-11-20T12:06:28;9.20;99.90
4856;DHT22;2442;48.676;7.986;2022-11-20T12:09:01;9.10;99.90
4856;DHT22;2442;48.676;7.986;2022-11-20T12:11:32;9.10;99.90
4856;DHT22;2442;48.676;7.986;2022-11-20T12:14:04;9.10;99.90
4856;DHT22;2442;48.676;7.986;2022-11-20T12:16:37;9.10;99.90
4856;DHT22;2442;48.676;7.986;2022-11-20T12:19:09;9.00;99.90
4856;DHT22;2442;48.676;7.986;2022-11-20T12:21:44;9.00;99.90
4856;DHT22;2442;48.676;7.986;2022-11-20T12:24:32;8.90;99.90
4856;DHT22;2442;48.676;7.986;2022-11-20T12:27:11;8.90;99.90
4856;DHT22;2442;48.676;7.986;2022-11-20T12:29:46;9.10;99.90
4856;DHT22;2442;48.676;7.986;2022-11-20T12:32:34;9.20;99.90
4856;DHT22;2442;48.676;7.986;2022-11-20T12:35:17;9.20;99.90
4856;DHT22;2442;48.676;7.986;2022-11-20T12:37:53;9.10;99.90
4856;DHT22;2442;48.676;7.986;2022-11-20T12:40:31;9.10;99.90
4856;DHT22;2442;48.676;7.986;2022-11-20T12:43:06;9.10;99.90
4856;DHT22;2442;48.676;7.986;2022-11-20T12:46:16;9.10;99.90
4856;DHT22;2442;48.676;7.986;2022-11-20T12:49:11;9.10;99.90
4856;DHT22;2442;48.676;7.986;2022-11-20T12:51:51;9.10;99.90
4856;DHT22;2442;48.676;7.986;2022-11-20T12:54:43;9.10;99.90
4856;DHT22;2442;48.676;7.986;2022-11-20T12:57:18;9.20;99.90
4856;DHT22;2442;48.676;7.986;2022-11-20T13:00:01;9.20;99.90
4856;DHT22;2442;48.676;7.986;2022-11-20T13:02:35;9.30;99.90
4856;DHT22;2442;48.676;7.986;2022-11-20T13:05:18;9.40;99.90
4856;DHT22;2442;48.676;7.986;2022-11-20T13:07:47;9.40;99.90
4856;DHT22;2442;48.676;7.986;2022-11-20T13:10:20;9.50;99.90
4856;DHT22;2442;48.676;7.986;2022-11-20T13:12:53;9.60;99.90
4856;DHT22;2442;48.676;7.986;2022-11-20T13:15:31;9.60;99.90
4856;DHT22;2442;48.676;7.986;2022-11-20T13:18:02;9.60;99.90
4856;DHT22;2442;48.676;7.986;2022-11-20T13:20:31;9.50;99.90
4856;DHT22;2442;48.676;7.986;2022-11-20T13:23:00;9.60;99.90
4856;DHT22;2442;48.676;7.986;2022-11-20T13:25:29;9.60;99.90
4856;DHT22;2442;48.676;7.986;2022-11-20T13:27:59;9.80;99.90
4856;DHT22;2442;48.676;7.986;2022-11-20T13:30:27;9.90;99.90
4856;DHT22;2442;48.676;7.986;2022-11-20T13:32:56;10.00;99.90
4856;DHT22;2442;48.676;7.986;2022-11-20T13:35:28;10.00;99.90
4856;DHT22;2442;48.676;7.986;2022-11-20T13:38:09;10.00;99.90
4856;DHT22;2442;48.676;7.986;2022-11-20T13:40:49;9.90;99.90
4856;DHT22;2442;48.676;7.986;2022-11-20T13:43:23;9.90;99.90
4856;DHT22;2442;48.676;7.986;2022-11-20T13:45:58;9.90;99.90
4856;DHT22;2442;48.676;7.986;2022-11-20T13:48:29;9.80;99.90
4856;DHT22;2442;48.676;7.986;2022-11-20T13:51:07;9.70;99.90
4856;DHT22;2442;48.676;7.986;2022-11-20T13:54:06;9.50;99.90
4856;DHT22;2442;48.676;7.986;2022-11-20T13:56:48;9.40;99.90
4856;DHT22;2442;48.676;7.986;2022-11-20T13:59:30;9.40;99.90
4856;DHT22;2442;48.676;7.986;2022-11-20T14:02:00;9.30;99.90
4856;DHT22;2442;48.676;7.986;2022-11-20T14:04:30;9.30;99.90
4856;DHT22;2442;48.676;7.986;2022-11-20T14:06:58;9.30;99.90
4856;DHT22;2442;48.676;7.986;2022-11-20T14:09:27;9.30;99.90
4856;DHT22;2442;48.676;7.986;2022-11-20T14:11:55;9.20;99.90
4856;DHT22;2442;48.676;7.986;2022-11-20T14:14:24;9.10;99.90
4856;DHT22;2442;48.676;7.986;2022-11-20T14:16:52;9.10;99.90
4856;DHT22;2442;48.676;7.986;2022-11-20T14:19:26;9.10;99.90
4856;DHT22;2442;48.676;7.986;2022-11-20T14:22:06;9.10;99.90
4856;DHT22;2442;48.676;7.986;2022-11-20T14:24:33;9.10;99.90
4856;DHT22;2442;48.676;7.986;2022-11-20T14:27:02;9.20;99.90
4856;DHT22;2442;48.676;7.986;2022-11-20T14:29:33;9.20;99.90
4856;DHT22;2442;48.676;7.986;2022-11-20T14:32:01;9.20;99.90
4856;DHT22;2442;48.676;7.986;2022-11-20T14:34:31;9.10;99.90
4856;DHT22;2442;48.676;7.986;2022-11-20T14:37:00;9.10;99.90
4856;DHT22;2442;48.676;7.986;2022-11-20T14:39:30;9.00;99.90
4856;DHT22;2442;48.676;7.986;2022-11-20T14:41:58;8.90;99.90
4856;DHT22;2442;48.676;7.986;2022-11-20T14:44:29;8.90;99.90
4856;DHT22;2442;48.676;7.986;2022-11-20T14:46:57;8.80;99.90
4856;DHT22;2442;48.676;7.986;2022-11-20T14:49:25;8.80;99.90
4856;DHT22;2442;48.676;7.986;2022-11-20T14:51:59;8.70;99.90
4856;DHT22;2442;48.676;7.986;2022-11-20T14:54:26;8.80;99.90
4856;DHT22;2442;48.676;7.986;2022-11-20T14:56:55;8.70;99.90
4856;DHT22;2442;48.676;7.986;2022-11-20T14:59:23;8.70;99.90
4856;DHT22;2442;48.676;7.986;2022-11-20T15:01:58;8.70;99.90
4856;DHT22;2442;48.676;7.986;2022-11-20T15:04:26;8.70;99.90
4856;DHT22;2442;48.676;7.986;2022-11-20T15:06:55;8.60;99.90
4856;DHT22;2442;48.676;7.986;2022-11-20T15:09:23;8.60;99.90
4856;DHT22;2442;48.676;7.986;2022-11-20T15:11:55;8.60;99.90
4856;DHT22;2442;48.676;7.986;2022-11-20T15:14:22;8.50;99.90
4856;DHT22;2442;48.676;7.986;2022-11-20T15:16:50;8.50;99.90
4856;DHT22;2442;48.676;7.986;2022-11-20T15:19:21;8.50;99.90
4856;DHT22;2442;48.676;7.986;2022-11-20T15:21:48;8.50;99.90
4856;DHT22;2442;48.676;7.986;2022-11-20T15:24:16;8.40;99.90
4856;DHT22;2442;48.676;7.986;2022-11-20T15:26:43;8.40;99.90
4856;DHT22;2442;48.676;7.986;2022-11-20T15:29:11;8.30;99.90
4856;DHT22;2442;48.676;7.986;2022-11-20T15:31:39;8.20;99.90
4856;DHT22;2442;48.676;7.986;2022-11-20T15:34:10;8.20;99.90
4856;DHT22;2442;48.676;7.986;2022-11-20T15:36:39;8.20;99.90
4856;DHT22;2442;48.676;7.986;2022-11-20T15:39:06;8.20;99.90
4856;DHT22;2442;48.676;7.986;2022-11-20T15:41:34;8.20;99.90
4856;DHT22;2442;48.676;7.986;2022-11-20T15:44:00;8.20;99.90
4856;DHT22;2442;48.676;7.986;2022-11-20T15:46:29;8.20;99.90
4856;DHT22;2442;48.676;7.986;2022-11-20T15:48:59;8.20;99.90
4856;DHT22;2442;48.676;7.986;2022-11-20T15:51:28;8.10;99.90
4856;DHT22;2442;48.676;7.986;2022-11-20T15:53:57;8.10;99.90
4856;DHT22;2442;48.676;7.986;2022-11-20T15:56:25;8.10;99.90
4856;DHT22;2442;48.676;7.986;2022-11-20T15:58:52;8.20;99.90
4856;DHT22;2442;48.676;7.986;2022-11-20T16:01:21;8.10;99.90
4856;DHT22;2442;48.676;7.986;2022-11-20T16:03:48;8.10;99.90
4856;DHT22;2442;48.676;7.986;2022-11-20T16:06:15;8.10;99.90
4856;DHT22;2442;48.676;7.986;2022-11-20T16:08:42;8.00;99.90
4856;DHT22;2442;48.676;7.986;2022-11-20T16:11:13;8.00;99.90
4856;DHT22;2442;48.676;7.986;2022-11-20T16:13:41;8.00;99.90
4856;DHT22;2442;48.676;7.986;2022-11-20T16:16:27;7.90;99.90
4856;DHT22;2442;48.676;7.986;2022-11-20T16:18:56;7.90;99.90
4856;DHT22;2442;48.676;7.986;2022-11-20T16:21:23;7.90;99.90
4856;DHT22;2442;48.676;7.986;2022-11-20T16:23:53;7.90;99.90
4856;DHT22;2442;48.676;7.986;2022-11-20T16:26:21;7.90;99.90
4856;DHT22;2442;48.676;7.986;2022-11-20T16:28:48;7.90;99.90
4856;DHT22;2442;48.676;7.986;2022-11-20T16:31:17;7.90;99.90
4856;DHT22;2442;48.676;7.986;2022-11-20T16:33:49;7.80;99.90
4856;DHT22;2442;48.676;7.986;2022-11-20T16:36:16;7.80;99.90
4856;DHT22;2442;48.676;7.986;2022-11-20T16:38:43;7.80;99.90
4856;DHT22;2442;48.676;7.986;2022-11-20T16:41:10;7.80;99.90